sensor_id;sensor_type;location;lat;lon;timestamp;temperature;humidity
6114;DHT22;3087;48.392;10.836;2022-09-03T00:01:39;19.00;99.90
6114;DHT22;3087;48.392;10.836;2022-09-03T00:04:36;18.90;99.90
6114;DHT22;3087;48.392;10.836;2022-09-03T00:07:10;18.90;99.90
6114;DHT22;3087;48.392;10.836;2022-09-03T00:09:42;18.90;99.90
6114;DHT22;3087;48.392;10.836;2022-09-03T00:12:24;18.90;99.90
6114;DHT22;3087;48.392;10.836;2022-09-03T00:14:55;18.80;99.90
6114;DHT22;3087;48.392;10.836;2022-09-03T00:17:27;18.80;99.90
6114;DHT22;3087;48.392;10.836;2022-09-03T00:23:11;18.70;99.90
6114;DHT22;3087;48.392;10.836;2022-09-03T00:25:44;18.70;99.90
6114;DHT22;3087;48.392;10.836;2022-09-03T00:28:18;18.60;99.90
6114;DHT22;3087;48.392;10.836;2022-09-03T00:30:47;18.60;99.90
6114;DHT22;3087;48.392;10.836;2022-09-03T00:33:21;18.60;99.90
6114;DHT22;3087;48.392;10.836;2022-09-03T00:38:28;18.60;99.90
6114;DHT22;3087;48.392;10.836;2022-09-03T00:57:05;18.50;99.90
6114;DHT22;3087;48.392;10.836;2022-09-03T01:07:58;18.50;99.90
6114;DHT22;3087;48.392;10.836;2022-09-03T01:10:53;18.40;99.90
6114;DHT22;3087;48.392;10.836;2022-09-03T01:13:43;18.30;99.90
6114;DHT22;3087;48.392;10.836;2022-09-03T01:22:34;18.00;99.90
6114;DHT22;3087;48.392;10.836;2022-09-03T01:25:34;18.00;99.90
6114;DHT22;3087;48.392;10.836;2022-09-03T01:33:36;17.80;99.90
6114;DHT22;3087;48.392;10.836;2022-09-03T01:39:03;17.90;99.90
6114;DHT22;3087;48.392;10.836;2022-09-03T01:53:12;17.70;99.90
6114;DHT22;3087;48.392;10.836;2022-09-03T02:00:53;17.40;99.90
6114;DHT22;3087;48.392;10.836;2022-09-03T02:03:23;17.30;99.90
6114;DHT22;3087;48.392;10.836;2022-09-03T02:05:49;17.20;99.90
6114;DHT22;3087;48.392;10.836;2022-09-03T02:08:18;17.20;99.90
6114;DHT22;3087;48.392;10.836;2022-09-03T02:10:48;17.20;99.90
6114;DHT22;3087;48.392;10.836;2022-09-03T02:15:43;19.10;99.90
6114;DHT22;3087;48.392;10.836;2022-09-03T02:18:27;17.30;99.90
6114;DHT22;3087;48.392;10.836;2022-09-03T02:20:57;17.30;99.90
6114;DHT22;3087;48.392;10.836;2022-09-03T02:23:24;17.30;99.90
6114;DHT22;3087;48.392;10.836;2022-09-03T02:26:00;17.20;99.90
6114;DHT22;3087;48.392;10.836;2022-09-03T02:28:28;17.10;99.90
6114;DHT22;3087;48.392;10.836;2022-09-03T02:30:54;17.10;99.90
6114;DHT22;3087;48.392;10.836;2022-09-03T02:33:21;17.00;99.90
6114;DHT22;3087;48.392;10.836;2022-09-03T02:35:47;16.90;99.90
6114;DHT22;3087;48.392;10.836;2022-09-03T02:38:16;17.00;99.90
6114;DHT22;3087;48.392;10.836;2022-09-03T02:40:43;17.00;99.90
6114;DHT22;3087;48.392;10.836;2022-09-03T02:43:16;16.90;99.90
6114;DHT22;3087;48.392;10.836;2022-09-03T02:45:47;17.10;99.90
6114;DHT22;3087;48.392;10.836;2022-09-03T02:48:17;17.50;99.90
6114;DHT22;3087;48.392;10.836;2022-09-03T02:50:43;17.70;99.90
6114;DHT22;3087;48.392;10.836;2022-09-03T02:53:09;17.60;99.90
6114;DHT22;3087;48.392;10.836;2022-09-03T02:55:34;17.30;99.90
6114;DHT22;3087;48.392;10.836;2022-09-03T02:58:00;17.20;99.90
6114;DHT22;3087;48.392;10.836;2022-09-03T03:00:26;17.10;99.90
6114;DHT22;3087;48.392;10.836;2022-09-03T03:02:54;16.90;99.90
6114;DHT22;3087;48.392;10.836;2022-09-03T03:05:27;16.80;99.90
6114;DHT22;3087;48.392;10.836;2022-09-03T03:07:54;16.70;99.90
6114;DHT22;3087;48.392;10.836;2022-09-03T03:10:21;16.60;99.90
6114;DHT22;3087;48.392;10.836;2022-09-03T03:12:46;16.70;99.90
6114;DHT22;3087;48.392;10.836;2022-09-03T03:15:32;16.60;99.90
6114;DHT22;3087;48.392;10.836;2022-09-03T03:18:18;16.60;99.90
6114;DHT22;3087;48.392;10.836;2022-09-03T03:21:14;16.60;99.90
6114;DHT22;3087;48.392;10.836;2022-09-03T03:23:43;16.40;99.90
6114;DHT22;3087;48.392;10.836;2022-09-03T03:26:21;16.60;99.90
6114;DHT22;3087;48.392;10.836;2022-09-03T03:28:49;16.40;99.90
6114;DHT22;3087;48.392;10.836;2022-09-03T03:31:18;16.30;99.90
6114;DHT22;3087;48.392;10.836;2022-09-03T03:33:50;16.30;99.90
6114;DHT22;3087;48.392;10.836;2022-09-03T03:36:16;16.30;99.90
6114;DHT22;3087;48.392;10.836;2022-09-03T03:38:43;16.30;99.90
6114;DHT22;3087;48.392;10.836;2022-09-03T03:41:18;16.50;99.90
6114;DHT22;3087;48.392;10.836;2022-09-03T03:43:44;16.60;99.90
6114;DHT22;3087;48.392;10.836;2022-09-03T03:46:10;16.50;99.90
6114;DHT22;3087;48.392;10.836;2022-09-03T03:48:37;16.50;99.90
6114;DHT22;3087;48.392;10.836;2022-09-03T03:51:04;16.50;99.90
6114;DHT22;3087;48.392;10.836;2022-09-03T03:53:33;16.60;99.90
6114;DHT22;3087;48.392;10.836;2022-09-03T03:56:00;16.60;99.90
6114;DHT22;3087;48.392;10.836;2022-09-03T03:58:31;16.70;99.90
6114;DHT22;3087;48.392;10.836;2022-09-03T04:01:08;16.80;99.90
6114;DHT22;3087;48.392;10.836;2022-09-03T04:03:34;17.20;99.90
6114;DHT22;3087;48.392;10.836;2022-09-03T04:06:00;17.10;99.90
6114;DHT22;3087;48.392;10.836;2022-09-03T04:08:27;16.90;99.90
6114;DHT22;3087;48.392;10.836;2022-09-03T04:10:53;16.90;99.90
6114;DHT22;3087;48.392;10.836;2022-09-03T04:13:19;16.80;99.90
6114;DHT22;3087;48.392;10.836;2022-09-03T04:15:45;16.70;99.90
6114;DHT22;3087;48.392;10.836;2022-09-03T04:18:11;16.60;99.90
6114;DHT22;3087;48.392;10.836;2022-09-03T04:20:37;16.50;99.90
6114;DHT22;3087;48.392;10.836;2022-09-03T04:23:04;16.40;99.90
6114;DHT22;3087;48.392;10.836;2022-09-03T04:25:30;16.40;99.90
6114;DHT22;3087;48.392;10.836;2022-09-03T04:27:56;16.70;99.90
6114;DHT22;3087;48.392;10.836;2022-09-03T04:30:22;16.70;99.90
6114;DHT22;3087;48.392;10.836;2022-09-03T04:32:51;16.60;99.90
6114;DHT22;3087;48.392;10.836;2022-09-03T04:35:21;16.70;99.90
6114;DHT22;3087;48.392;10.836;2022-09-03T04:37:48;17.00;99.90
6114;DHT22;3087;48.392;10.836;2022-09-03T04:40:14;17.40;99.90
6114;DHT22;3087;48.392;10.836;2022-09-03T04:42:39;17.60;99.90
6114;DHT22;3087;48.392;10.836;2022-09-03T04:45:05;17.50;99.90
6114;DHT22;3087;48.392;10.836;2022-09-03T04:47:31;17.20;99.90
6114;DHT22;3087;48.392;10.836;2022-09-03T04:49:57;16.90;99.90
6114;DHT22;3087;48.392;10.836;2022-09-03T04:52:23;16.70;99.90
6114;DHT22;3087;48.392;10.836;2022-09-03T04:54:49;16.70;99.90
6114;DHT22;3087;48.392;10.836;2022-09-03T04:57:15;15.50;99.90
6114;DHT22;3087;48.392;10.836;2022-09-03T04:59:41;16.60;99.90
6114;DHT22;3087;48.392;10.836;2022-09-03T05:02:07;16.50;99.90
6114;DHT22;3087;48.392;10.836;2022-09-03T05:04:34;16.30;99.90
6114;DHT22;3087;48.392;10.836;2022-09-03T05:07:00;16.30;99.90
6114;DHT22;3087;48.392;10.836;2022-09-03T05:09:26;16.30;99.90
6114;DHT22;3087;48.392;10.836;2022-09-03T05:11:52;16.30;99.90
6114;DHT22;3087;48.392;10.836;2022-09-03T05:14:17;16.30;99.90
6114;DHT22;3087;48.392;10.836;2022-09-03T05:16:43;16.30;99.90
6114;DHT22;3087;48.392;10.836;2022-09-03T05:19:09;16.30;99.90
6114;DHT22;3087;48.392;10.836;2022-09-03T05:21:35;16.30;99.90
6114;DHT22;3087;48.392;10.836;2022-09-03T05:24:01;16.30;99.90
6114;DHT22;3087;48.392;10.836;2022-09-03T05:26:30;16.40;99.90
6114;DHT22;3087;48.392;10.836;2022-09-03T05:28:59;16.40;99.90
6114;DHT22;3087;48.392;10.836;2022-09-03T05:31:27;16.40;99.90
6114;DHT22;3087;48.392;10.836;2022-09-03T05:33:55;16.50;99.90
6114;DHT22;3087;48.392;10.836;2022-09-03T05:36:23;16.50;99.90
6114;DHT22;3087;48.392;10.836;2022-09-03T05:38:50;16.60;99.90
6114;DHT22;3087;48.392;10.836;2022-09-03T05:41:19;16.70;99.90
6114;DHT22;3087;48.392;10.836;2022-09-03T05:43:47;16.80;99.90
6114;DHT22;3087;48.392;10.836;2022-09-03T05:46:17;16.80;99.90
6114;DHT22;3087;48.392;10.836;2022-09-03T05:48:43;16.90;99.90
6114;DHT22;3087;48.392;10.836;2022-09-03T05:51:12;16.80;99.90
6114;DHT22;3087;48.392;10.836;2022-09-03T05:53:41;16.90;99.90
6114;DHT22;3087;48.392;10.836;2022-09-03T05:56:10;16.80;99.90
6114;DHT22;3087;48.392;10.836;2022-09-03T05:58:40;16.60;99.90
6114;DHT22;3087;48.392;10.836;2022-09-03T06:03:44;16.10;99.90
6114;DHT22;3087;48.392;10.836;2022-09-03T06:06:10;16.00;99.90
6114;DHT22;3087;48.392;10.836;2022-09-03T06:08:39;15.90;99.90
6114;DHT22;3087;48.392;10.836;2022-09-03T06:11:05;15.80;99.90
6114;DHT22;3087;48.392;10.836;2022-09-03T06:13:32;15.90;99.90
6114;DHT22;3087;48.392;10.836;2022-09-03T06:16:00;15.80;99.90
6114;DHT22;3087;48.392;10.836;2022-09-03T06:18:26;15.70;99.90
6114;DHT22;3087;48.392;10.836;2022-09-03T06:20:57;15.80;99.90
6114;DHT22;3087;48.392;10.836;2022-09-03T06:23:23;15.90;99.90
6114;DHT22;3087;48.392;10.836;2022-09-03T06:26:12;16.10;99.90
6114;DHT22;3087;48.392;10.836;2022-09-03T06:28:40;16.50;99.90
6114;DHT22;3087;48.392;10.836;2022-09-03T06:31:09;16.80;99.90
6114;DHT22;3087;48.392;10.836;2022-09-03T06:33:36;17.00;99.90
6114;DHT22;3087;48.392;10.836;2022-09-03T06:36:08;16.90;99.90
6114;DHT22;3087;48.392;10.836;2022-09-03T06:38:35;16.60;99.90
6114;DHT22;3087;48.392;10.836;2022-09-03T06:41:04;16.30;99.90
6114;DHT22;3087;48.392;10.836;2022-09-03T06:43:32;16.10;99.90
6114;DHT22;3087;48.392;10.836;2022-09-03T06:46:03;15.90;99.90
6114;DHT22;3087;48.392;10.836;2022-09-03T06:48:31;15.90;99.90
6114;DHT22;3087;48.392;10.836;2022-09-03T06:50:58;15.80;99.90
6114;DHT22;3087;48.392;10.836;2022-09-03T06:53:27;15.70;99.90
6114;DHT22;3087;48.392;10.836;2022-09-03T06:55:58;15.80;99.90
6114;DHT22;3087;48.392;10.836;2022-09-03T06:58:28;15.90;99.90
6114;DHT22;3087;48.392;10.836;2022-09-03T07:01:00;15.90;99.90
6114;DHT22;3087;48.392;10.836;2022-09-03T07:03:26;16.00;99.90
6114;DHT22;3087;48.392;10.836;2022-09-03T07:05:52;16.00;99.90
6114;DHT22;3087;48.392;10.836;2022-09-03T07:08:17;16.00;99.90
6114;DHT22;3087;48.392;10.836;2022-09-03T07:10:46;16.00;99.90
6114;DHT22;3087;48.392;10.836;2022-09-03T07:13:12;16.10;99.90
6114;DHT22;3087;48.392;10.836;2022-09-03T07:15:39;16.10;99.90
6114;DHT22;3087;48.392;10.836;2022-09-03T07:18:05;16.00;99.90
6114;DHT22;3087;48.392;10.836;2022-09-03T07:20:31;16.10;99.90
6114;DHT22;3087;48.392;10.836;2022-09-03T07:22:57;16.20;99.90
6114;DHT22;3087;48.392;10.836;2022-09-03T07:25:24;16.30;99.90
6114;DHT22;3087;48.392;10.836;2022-09-03T07:27:50;16.40;99.90
6114;DHT22;3087;48.392;10.836;2022-09-03T07:30:16;16.50;99.90
6114;DHT22;3087;48.392;10.836;2022-09-03T07:32:44;16.60;99.90
6114;DHT22;3087;48.392;10.836;2022-09-03T07:35:11;16.70;99.90
6114;DHT22;3087;48.392;10.836;2022-09-03T07:37:40;16.70;99.90
6114;DHT22;3087;48.392;10.836;2022-09-03T07:40:08;16.70;99.90
6114;DHT22;3087;48.392;10.836;2022-09-03T07:42:35;16.80;99.90
6114;DHT22;3087;48.392;10.836;2022-09-03T07:45:04;16.90;99.90
6114;DHT22;3087;48.392;10.836;2022-09-03T07:47:34;16.90;99.90
6114;DHT22;3087;48.392;10.836;2022-09-03T07:50:00;17.00;99.90
6114;DHT22;3087;48.392;10.836;2022-09-03T07:52:26;17.10;99.90
6114;DHT22;3087;48.392;10.836;2022-09-03T07:54:52;17.10;99.90
6114;DHT22;3087;48.392;10.836;2022-09-03T07:57:18;17.20;99.90
6114;DHT22;3087;48.392;10.836;2022-09-03T07:59:43;17.40;99.90
6114;DHT22;3087;48.392;10.836;2022-09-03T08:02:09;17.50;99.90
6114;DHT22;3087;48.392;10.836;2022-09-03T08:04:34;17.60;99.90
6114;DHT22;3087;48.392;10.836;2022-09-03T08:07:00;17.60;99.90
6114;DHT22;3087;48.392;10.836;2022-09-03T08:09:27;17.70;99.90
6114;DHT22;3087;48.392;10.836;2022-09-03T08:11:52;17.80;99.90
6114;DHT22;3087;48.392;10.836;2022-09-03T08:14:18;17.90;99.90
6114;DHT22;3087;48.392;10.836;2022-09-03T08:16:45;17.90;99.90
6114;DHT22;3087;48.392;10.836;2022-09-03T08:19:12;18.10;99.90
6114;DHT22;3087;48.392;10.836;2022-09-03T08:21:39;18.20;99.90
6114;DHT22;3087;48.392;10.836;2022-09-03T08:24:10;18.20;99.90
6114;DHT22;3087;48.392;10.836;2022-09-03T08:26:40;18.40;99.90
6114;DHT22;3087;48.392;10.836;2022-09-03T08:29:07;18.40;99.90
6114;DHT22;3087;48.392;10.836;2022-09-03T08:31:34;18.60;99.90
6114;DHT22;3087;48.392;10.836;2022-09-03T08:34:02;18.70;99.90
6114;DHT22;3087;48.392;10.836;2022-09-03T08:36:35;18.70;99.90
6114;DHT22;3087;48.392;10.836;2022-09-03T08:39:03;18.90;99.90
6114;DHT22;3087;48.392;10.836;2022-09-03T08:47:04;19.40;99.90
6114;DHT22;3087;48.392;10.836;2022-09-03T08:49:46;19.60;99.90
6114;DHT22;3087;48.392;10.836;2022-09-03T08:52:36;19.70;99.90
6114;DHT22;3087;48.392;10.836;2022-09-03T08:55:20;19.70;99.90
6114;DHT22;3087;48.392;10.836;2022-09-03T09:14:02;20.50;99.90
6114;DHT22;3087;48.392;10.836;2022-09-03T09:19:50;20.70;99.90
6114;DHT22;3087;48.392;10.836;2022-09-03T09:22:49;20.70;99.90
6114;DHT22;3087;48.392;10.836;2022-09-03T09:25:21;20.80;99.90
6114;DHT22;3087;48.392;10.836;2022-09-03T09:30:20;21.00;99.90
6114;DHT22;3087;48.392;10.836;2022-09-03T09:32:46;21.10;99.90
6114;DHT22;3087;48.392;10.836;2022-09-03T09:35:13;21.30;99.90
6114;DHT22;3087;48.392;10.836;2022-09-03T09:37:51;21.50;99.90
6114;DHT22;3087;48.392;10.836;2022-09-03T09:40:30;21.70;99.90
6114;DHT22;3087;48.392;10.836;2022-09-03T09:43:05;21.80;99.90
6114;DHT22;3087;48.392;10.836;2022-09-03T09:45:31;21.80;99.90
6114;DHT22;3087;48.392;10.836;2022-09-03T09:47:58;21.80;99.90
6114;DHT22;3087;48.392;10.836;2022-09-03T09:50:25;21.90;99.90
6114;DHT22;3087;48.392;10.836;2022-09-03T09:53:02;22.00;99.90
6114;DHT22;3087;48.392;10.836;2022-09-03T09:55:32;22.00;99.90
6114;DHT22;3087;48.392;10.836;2022-09-03T09:58:06;22.00;99.90
6114;DHT22;3087;48.392;10.836;2022-09-03T10:00:34;22.10;99.90
6114;DHT22;3087;48.392;10.836;2022-09-03T10:03:08;22.20;99.90
6114;DHT22;3087;48.392;10.836;2022-09-03T10:05:35;22.30;99.90
6114;DHT22;3087;48.392;10.836;2022-09-03T10:08:18;22.30;99.90
6114;DHT22;3087;48.392;10.836;2022-09-03T10:10:47;22.30;99.90
6114;DHT22;3087;48.392;10.836;2022-09-03T10:13:25;22.20;99.90
6114;DHT22;3087;48.392;10.836;2022-09-03T10:16:01;22.20;99.90
6114;DHT22;3087;48.392;10.836;2022-09-03T10:18:42;22.20;99.90
6114;DHT22;3087;48.392;10.836;2022-09-03T10:21:42;22.20;99.90
6114;DHT22;3087;48.392;10.836;2022-09-03T10:26:50;22.20;99.90
6114;DHT22;3087;48.392;10.836;2022-09-03T10:29:19;22.20;99.90
6114;DHT22;3087;48.392;10.836;2022-09-03T10:32:19;22.10;99.90
6114;DHT22;3087;48.392;10.836;2022-09-03T10:37:50;22.00;99.90
6114;DHT22;3087;48.392;10.836;2022-09-03T10:46:02;22.20;99.90
6114;DHT22;3087;48.392;10.836;2022-09-03T10:48:56;22.30;99.90
6114;DHT22;3087;48.392;10.836;2022-09-03T10:57:18;22.50;99.90
6114;DHT22;3087;48.392;10.836;2022-09-03T11:05:15;22.60;99.90
6114;DHT22;3087;48.392;10.836;2022-09-03T11:07:49;22.80;99.90
6114;DHT22;3087;48.392;10.836;2022-09-03T11:10:24;22.90;99.90
6114;DHT22;3087;48.392;10.836;2022-09-03T11:21:03;22.90;99.90
6114;DHT22;3087;48.392;10.836;2022-09-03T11:23:32;22.90;99.90
6114;DHT22;3087;48.392;10.836;2022-09-03T11:26:06;23.00;99.90
6114;DHT22;3087;48.392;10.836;2022-09-03T11:37:02;24.90;99.90
6114;DHT22;3087;48.392;10.836;2022-09-03T11:42:02;25.40;99.90
6114;DHT22;3087;48.392;10.836;2022-09-03T11:44:50;25.70;99.90
6114;DHT22;3087;48.392;10.836;2022-09-03T11:49:52;26.70;99.90
6114;DHT22;3087;48.392;10.836;2022-09-03T11:52:30;27.10;99.90
6114;DHT22;3087;48.392;10.836;2022-09-03T11:55:06;27.50;99.90
6114;DHT22;3087;48.392;10.836;2022-09-03T11:57:33;27.70;99.90
6114;DHT22;3087;48.392;10.836;2022-09-03T12:00:14;28.00;99.90
6114;DHT22;3087;48.392;10.836;2022-09-03T12:02:59;28.00;99.90
6114;DHT22;3087;48.392;10.836;2022-09-03T12:06:03;28.40;99.90
6114;DHT22;3087;48.392;10.836;2022-09-03T12:08:40;28.80;99.90
6114;DHT22;3087;48.392;10.836;2022-09-03T12:17:10;29.10;99.90
6114;DHT22;3087;48.392;10.836;2022-09-03T12:22:15;29.30;99.90
6114;DHT22;3087;48.392;10.836;2022-09-03T12:24:42;29.50;99.90
6114;DHT22;3087;48.392;10.836;2022-09-03T12:27:14;29.70;99.90
6114;DHT22;3087;48.392;10.836;2022-09-03T12:29:53;29.90;99.90
6114;DHT22;3087;48.392;10.836;2022-09-03T12:32:21;29.80;99.90
6114;DHT22;3087;48.392;10.836;2022-09-03T12:34:46;29.40;99.90
6114;DHT22;3087;48.392;10.836;2022-09-03T12:37:24;28.90;99.90
6114;DHT22;3087;48.392;10.836;2022-09-03T12:39:52;28.40;99.90
6114;DHT22;3087;48.392;10.836;2022-09-03T12:42:25;28.10;99.90
6114;DHT22;3087;48.392;10.836;2022-09-03T12:44:52;27.70;99.90
6114;DHT22;3087;48.392;10.836;2022-09-03T12:47:20;27.40;99.90
6114;DHT22;3087;48.392;10.836;2022-09-03T12:49:48;27.10;99.90
6114;DHT22;3087;48.392;10.836;2022-09-03T12:55:37;26.50;99.90
6114;DHT22;3087;48.392;10.836;2022-09-03T13:00:46;26.00;99.90
6114;DHT22;3087;48.392;10.836;2022-09-03T13:03:30;25.80;99.90
6114;DHT22;3087;48.392;10.836;2022-09-03T13:06:20;25.60;99.90
6114;DHT22;3087;48.392;10.836;2022-09-03T13:08:59;25.50;99.90
6114;DHT22;3087;48.392;10.836;2022-09-03T13:11:26;25.40;99.90
6114;DHT22;3087;48.392;10.836;2022-09-03T13:21:54;28.50;99.90
6114;DHT22;3087;48.392;10.836;2022-09-03T13:30:08;23.60;99.90
6114;DHT22;3087;48.392;10.836;2022-09-03T13:35:35;22.80;99.90
6114;DHT22;3087;48.392;10.836;2022-09-03T13:38:40;22.60;99.90
6114;DHT22;3087;48.392;10.836;2022-09-03T13:44:09;21.60;99.90
6114;DHT22;3087;48.392;10.836;2022-09-03T13:46:51;21.00;99.90
6114;DHT22;3087;48.392;10.836;2022-09-03T13:49:26;20.80;99.90
6114;DHT22;3087;48.392;10.836;2022-09-03T13:54:58;20.60;99.90
6114;DHT22;3087;48.392;10.836;2022-09-03T14:00:22;20.70;99.90
6114;DHT22;3087;48.392;10.836;2022-09-03T14:03:16;20.70;99.90
6114;DHT22;3087;48.392;10.836;2022-09-03T14:06:08;20.80;99.90
6114;DHT22;3087;48.392;10.836;2022-09-03T14:14:44;21.10;99.90
6114;DHT22;3087;48.392;10.836;2022-09-03T14:17:36;21.20;99.90
6114;DHT22;3087;48.392;10.836;2022-09-03T14:20:10;21.20;99.90
6114;DHT22;3087;48.392;10.836;2022-09-03T14:22:58;21.30;99.90
6114;DHT22;3087;48.392;10.836;2022-09-03T14:25:28;21.40;99.90
6114;DHT22;3087;48.392;10.836;2022-09-03T14:27:54;21.40;99.90
6114;DHT22;3087;48.392;10.836;2022-09-03T14:30:48;21.40;99.90
6114;DHT22;3087;48.392;10.836;2022-09-03T14:34:15;21.50;99.90
6114;DHT22;3087;48.392;10.836;2022-09-03T14:39:53;21.40;99.90
6114;DHT22;3087;48.392;10.836;2022-09-03T14:47:54;21.30;99.90
6114;DHT22;3087;48.392;10.836;2022-09-03T14:50:43;21.40;99.90
6114;DHT22;3087;48.392;10.836;2022-09-03T14:53:21;21.50;99.90
6114;DHT22;3087;48.392;10.836;2022-09-03T15:08:12;21.60;99.90
6114;DHT22;3087;48.392;10.836;2022-09-03T15:10:49;21.50;99.90
6114;DHT22;3087;48.392;10.836;2022-09-03T15:13:20;21.50;99.90
6114;DHT22;3087;48.392;10.836;2022-09-03T15:24:16;21.00;99.90
6114;DHT22;3087;48.392;10.836;2022-09-03T15:37:59;20.60;99.90
6114;DHT22;3087;48.392;10.836;2022-09-03T15:40:47;20.80;99.90
6114;DHT22;3087;48.392;10.836;2022-09-03T15:43:31;20.90;99.90
6114;DHT22;3087;48.392;10.836;2022-09-03T15:46:01;21.00;99.90
6114;DHT22;3087;48.392;10.836;2022-09-03T15:48:36;21.00;99.90
6114;DHT22;3087;48.392;10.836;2022-09-03T15:53:59;21.10;99.90
6114;DHT22;3087;48.392;10.836;2022-09-03T15:57:08;21.30;99.90
6114;DHT22;3087;48.392;10.836;2022-09-03T15:59:36;21.40;99.90
6114;DHT22;3087;48.392;10.836;2022-09-03T16:15:17;21.40;99.90
6114;DHT22;3087;48.392;10.836;2022-09-03T16:18:01;21.10;99.90
6114;DHT22;3087;48.392;10.836;2022-09-03T16:20:42;21.10;99.90
6114;DHT22;3087;48.392;10.836;2022-09-03T16:23:22;21.00;99.90
6114;DHT22;3087;48.392;10.836;2022-09-03T16:25:56;20.90;99.90
6114;DHT22;3087;48.392;10.836;2022-09-03T16:28:34;21.00;99.90
6114;DHT22;3087;48.392;10.836;2022-09-03T16:34:14;20.80;99.90
6114;DHT22;3087;48.392;10.836;2022-09-03T16:45:45;20.80;99.90
6114;DHT22;3087;48.392;10.836;2022-09-03T16:56:43;20.90;99.90
6114;DHT22;3087;48.392;10.836;2022-09-03T17:13:10;21.00;99.90
6114;DHT22;3087;48.392;10.836;2022-09-03T17:15:56;21.10;99.90
6114;DHT22;3087;48.392;10.836;2022-09-03T17:31:55;21.20;99.90
6114;DHT22;3087;48.392;10.836;2022-09-03T17:34:54;21.20;99.90
6114;DHT22;3087;48.392;10.836;2022-09-03T17:40:35;21.10;99.90
6114;DHT22;3087;48.392;10.836;2022-09-03T17:46:05;21.10;99.90
6114;DHT22;3087;48.392;10.836;2022-09-03T17:49:13;21.20;99.90
6114;DHT22;3087;48.392;10.836;2022-09-03T17:52:27;21.10;99.90
6114;DHT22;3087;48.392;10.836;2022-09-03T17:54:43;21.10;99.90
6114;DHT22;3087;48.392;10.836;2022-09-03T17:57:19;21.00;99.90
6114;DHT22;3087;48.392;10.836;2022-09-03T17:59:53;21.00;99.90
6114;DHT22;3087;48.392;10.836;2022-09-03T18:02:31;21.00;99.90
6114;DHT22;3087;48.392;10.836;2022-09-03T18:05:03;21.00;99.90
6114;DHT22;3087;48.392;10.836;2022-09-03T18:07:43;21.10;99.90
6114;DHT22;3087;48.392;10.836;2022-09-03T18:16:34;21.20;99.90
6114;DHT22;3087;48.392;10.836;2022-09-03T18:18:41;21.10;99.90
6114;DHT22;3087;48.392;10.836;2022-09-03T18:21:11;21.00;99.90
6114;DHT22;3087;48.392;10.836;2022-09-03T18:26:49;21.10;99.90
6114;DHT22;3087;48.392;10.836;2022-09-03T18:29:57;21.00;99.90
6114;DHT22;3087;48.392;10.836;2022-09-03T18:32:44;21.00;99.90
6114;DHT22;3087;48.392;10.836;2022-09-03T18:35:29;21.00;99.90
6114;DHT22;3087;48.392;10.836;2022-09-03T18:38:15;21.00;99.90
6114;DHT22;3087;48.392;10.836;2022-09-03T18:41:05;21.00;99.90
6114;DHT22;3087;48.392;10.836;2022-09-03T18:44:10;20.90;99.90
6114;DHT22;3087;48.392;10.836;2022-09-03T18:47:20;20.90;99.90
6114;DHT22;3087;48.392;10.836;2022-09-03T18:50:31;20.90;99.90
6114;DHT22;3087;48.392;10.836;2022-09-03T18:53:32;20.90;99.90
6114;DHT22;3087;48.392;10.836;2022-09-03T19:01:57;20.80;99.90
6114;DHT22;3087;48.392;10.836;2022-09-03T19:14:06;20.20;99.90
6114;DHT22;3087;48.392;10.836;2022-09-03T19:17:07;20.20;99.90
6114;DHT22;3087;48.392;10.836;2022-09-03T19:20:14;20.10;99.90
6114;DHT22;3087;48.392;10.836;2022-09-03T19:23:02;20.00;99.90
6114;DHT22;3087;48.392;10.836;2022-09-03T19:25:47;20.00;99.90
6114;DHT22;3087;48.392;10.836;2022-09-03T19:28:35;20.00;99.90
6114;DHT22;3087;48.392;10.836;2022-09-03T19:31:44;20.00;99.90
6114;DHT22;3087;48.392;10.836;2022-09-03T19:37:39;20.00;99.90
6114;DHT22;3087;48.392;10.836;2022-09-03T19:49:14;20.00;99.90
6114;DHT22;3087;48.392;10.836;2022-09-03T19:52:17;20.00;99.90
6114;DHT22;3087;48.392;10.836;2022-09-03T19:55:07;20.10;99.90
6114;DHT22;3087;48.392;10.836;2022-09-03T19:57:58;20.00;99.90
6114;DHT22;3087;48.392;10.836;2022-09-03T20:00:43;19.90;99.90
6114;DHT22;3087;48.392;10.836;2022-09-03T20:03:28;19.90;99.90
6114;DHT22;3087;48.392;10.836;2022-09-03T20:06:13;19.90;99.90
6114;DHT22;3087;48.392;10.836;2022-09-03T20:09:07;20.00;99.90
6114;DHT22;3087;48.392;10.836;2022-09-03T20:11:57;20.00;99.90
6114;DHT22;3087;48.392;10.836;2022-09-03T20:14:24;19.90;99.90
6114;DHT22;3087;48.392;10.836;2022-09-03T20:22:43;19.90;99.90
6114;DHT22;3087;48.392;10.836;2022-09-03T20:25:23;19.80;99.90
6114;DHT22;3087;48.392;10.836;2022-09-03T20:30:34;19.60;99.90
6114;DHT22;3087;48.392;10.836;2022-09-03T20:45:23;19.20;99.90
6114;DHT22;3087;48.392;10.836;2022-09-03T20:55:43;18.60;99.90
6114;DHT22;3087;48.392;10.836;2022-09-03T21:01:11;18.50;99.90
6114;DHT22;3087;48.392;10.836;2022-09-03T21:06:49;18.50;99.90
6114;DHT22;3087;48.392;10.836;2022-09-03T21:09:51;18.60;99.90
6114;DHT22;3087;48.392;10.836;2022-09-03T21:15:24;18.80;99.90
6114;DHT22;3087;48.392;10.836;2022-09-03T21:23:39;18.70;99.90
6114;DHT22;3087;48.392;10.836;2022-09-03T21:28:38;18.70;99.90
6114;DHT22;3087;48.392;10.836;2022-09-03T21:33:46;18.80;99.90
6114;DHT22;3087;48.392;10.836;2022-09-03T21:36:27;18.70;99.90
6114;DHT22;3087;48.392;10.836;2022-09-03T21:39:04;18.50;99.90
6114;DHT22;3087;48.392;10.836;2022-09-03T21:41:35;18.40;99.90
6114;DHT22;3087;48.392;10.836;2022-09-03T21:44:04;18.30;99.90
6114;DHT22;3087;48.392;10.836;2022-09-03T21:46:42;18.10;99.90
6114;DHT22;3087;48.392;10.836;2022-09-03T21:49:13;18.00;99.90
6114;DHT22;3087;48.392;10.836;2022-09-03T21:54:30;17.80;99.90
6114;DHT22;3087;48.392;10.836;2022-09-03T21:57:18;17.80;99.90
6114;DHT22;3087;48.392;10.836;2022-09-03T22:02:32;17.80;99.90
6114;DHT22;3087;48.392;10.836;2022-09-03T22:04:59;17.80;99.90
6114;DHT22;3087;48.392;10.836;2022-09-03T22:15:47;18.10;99.90
6114;DHT22;3087;48.392;10.836;2022-09-03T22:18:26;18.20;99.90
6114;DHT22;3087;48.392;10.836;2022-09-03T22:21:15;18.20;99.90
6114;DHT22;3087;48.392;10.836;2022-09-03T22:24:05;18.20;99.90
6114;DHT22;3087;48.392;10.836;2022-09-03T22:26:42;18.30;99.90
6114;DHT22;3087;48.392;10.836;2022-09-03T22:32:40;18.30;99.90
6114;DHT22;3087;48.392;10.836;2022-09-03T22:35:14;18.30;99.90
6114;DHT22;3087;48.392;10.836;2022-09-03T22:46:04;18.00;99.90
6114;DHT22;3087;48.392;10.836;2022-09-03T22:48:57;17.90;99.90
6114;DHT22;3087;48.392;10.836;2022-09-03T22:51:27;17.80;99.90
6114;DHT22;3087;48.392;10.836;2022-09-03T22:56:29;17.60;99.90
6114;DHT22;3087;48.392;10.836;2022-09-03T22:59:09;17.40;99.90
6114;DHT22;3087;48.392;10.836;2022-09-03T23:01:55;17.40;99.90
6114;DHT22;3087;48.392;10.836;2022-09-03T23:04:35;17.50;99.90
6114;DHT22;3087;48.392;10.836;2022-09-03T23:09:45;17.60;99.90
6114;DHT22;3087;48.392;10.836;2022-09-03T23:12:20;17.60;99.90
6114;DHT22;3087;48.392;10.836;2022-09-03T23:14:50;17.60;99.90
6114;DHT22;3087;48.392;10.836;2022-09-03T23:17:46;17.70;99.90
6114;DHT22;3087;48.392;10.836;2022-09-03T23:20:19;17.80;99.90